LFBA/AGF METAR and TAF weather

Enter ICAO airport designator
Station Type Date Time Source
LFBA METAR 2019/04/24 16:30 UTC NOAA

LFBA 241630Z AUTO 16010KT 110V210 CAVOK 20/07 Q1000 TEMPO 24015G30KT 4000 TSRA BKN030CB


Station Type Date Time Source
LFBA Decoded METAR 2019/04/24 16:30 UTC NOAA

Agen, France (LFBA) 44-11N 000-36E 60M
Apr 24, 2019 - 12:30 PM EDT / 2019.04.24 1630 UTC
Wind: from the SSE (160 degrees) at 12 MPH (10 KT) (direction variable):0
Visibility: greater than 7 mile(s):0
Weather: Cumulonimbus clouds observed
Temperature: 68 F (20 C)
Dew Point: 44 F (7 C)
Relative Humidity: 42%
Pressure (altimeter): 29.53 in. Hg (1000 hPa)
ob: LFBA 241630Z AUTO 16010KT 110V210 CAVOK 20/07 Q1000 TEMPO 24015G30KT 4000 TSRA BKN030CB
cycle: 16

Station Type Date Time Source
LFBA TAF 2014/12/22 20:03 UTC NOAA

TAF
AMD TAF
AMD LFBA 222037Z 2220/2224 12007KT 0400 FG VV///
TEMPO 2220/2224 0100 PROB30
TEMPO 2222/2224 FZFG

Example: see airport list